Thunder radar more information blitzortung!


avis per Snow/Ice more information rain snow radar


Visita la nostra xarxa de llocs de meteo:

Template documentation
and downloads

And another site



Snow/Ice From: 26-02-2018 12:00 Until: 27-02-2018 05:59 warning for: Snow/Ice Level: Yellow info button

Pagina Historial Weather Underground text

Diari Resum February 8, 2018 Unitats:  Imperial    Mètric   Tant
« Previous Dia
SegĂźent Dia »
Diari Setmana Mensual Anual Personalitzada
  Maxima: Minima: Media:
Temperatura: TemperatureC °F -1.0 °F 2.2 °F
Punt de rosada: DewpointC °F -8.0 °F -5.1 °F
Humitat: Humidity % 49 % 58 %
Wind Speed: WindSpeedKMH mph 0.0 mph 3.6 mph
RĂ fegues de vent: WindSpeedGustKMH mph - -
Vent:- - SE
Pression baro: PressurehPa in 1014.8 in -
Precipitacions: 0.0 in    
Historical Graphs
 
 
Dades de taula per February 8, 2018
Temps Temperatura Punt de rosada Pression baro Vent Wind Speed RĂ fegues de vent Humitat Rainfall Rate (Hourly)
TemperatureC °F DewpointC °F PressurehPa in Calm     Humidity % HourlyPrecipMM in
00:01 2.9 °F -6.5 °F 1015.8 in West 3.9 mph 3.9 mph 50 % 0.0 in
00:06 2.9 °F -6.5 °F 1015.8 in NNE 3.7 mph 3.7 mph 50 % 0.0 in
00:11 2.8 °F -6.6 °F 1015.8 in WNW 3.2 mph   50 % 0.0 in
00:16 2.7 °F -6.7 °F 1015.8 in NW 4.2 mph   50 % 0.0 in
00:21 2.6 °F -6.8 °F 1015.8 in NW 3.7 mph 3.7 mph 50 % 0.0 in
00:26 2.5 °F -6.9 °F 1015.8 in SSE 1.9 mph   50 % 0.0 in
00:31 2.5 °F -6.9 °F 1015.8 in WNW 1.9 mph   50 % 0.0 in
00:36 2.4 °F -7.0 °F 1015.8 in West 1.9 mph 1.9 mph 50 % 0.0 in
00:41 2.2 °F -7.2 °F 1015.8 in Calm     50 % 0.0 in
00:46 2.2 °F -7.2 °F 1015.8 in WNW 3.7 mph 3.7 mph 50 % 0.0 in
00:51 2.1 °F -7.3 °F 1015.8 in NNE 1.9 mph 2.3 mph 50 % 0.0 in
00:56 2.0 °F -7.1 °F 1015.8 in WNW 1.9 mph   51 % 0.0 in
01:01 2.0 °F -7.1 °F 1015.8 in ENE 2.3 mph   51 % 0.0 in
01:06 1.9 °F -7.2 °F 1015.8 in NNW 1.9 mph 1.9 mph 51 % 0.0 in
01:11 1.9 °F -7.2 °F 1015.8 in WNW 1.9 mph   51 % 0.0 in
01:16 1.8 °F -7.3 °F 1015.8 in West 1.9 mph   51 % 0.0 in
01:21 1.8 °F -7.3 °F 1015.8 in West 1.9 mph 1.9 mph 51 % 0.0 in
01:26 1.7 °F -7.4 °F 1015.8 in West 3.7 mph 3.7 mph 51 % 0.0 in
01:31 1.6 °F -7.4 °F 1015.8 in WSW 1.9 mph 2.3 mph 51 % 0.0 in
01:36 1.7 °F -7.4 °F 1015.8 in West 3.7 mph 3.7 mph 51 % 0.0 in
01:41 1.7 °F -7.4 °F 1015.8 in West 1.9 mph 1.9 mph 51 % 0.0 in
01:46 1.5 °F -7.6 °F 1015.8 in Calm     51 % 0.0 in
01:51 1.4 °F -7.7 °F 1015.8 in West 2.6 mph   51 % 0.0 in
01:56 1.5 °F -7.6 °F 1015.8 in West 1.9 mph 1.9 mph 51 % 0.0 in
02:01 1.5 °F -7.6 °F 1015.8 in West 1.9 mph   51 % 0.0 in
02:06 1.6 °F -7.4 °F 1015.8 in ENE 3.7 mph 3.7 mph 51 % 0.0 in
02:11 1.5 °F -7.6 °F 1015.8 in ENE 3.7 mph 3.7 mph 51 % 0.0 in
02:16 1.3 °F -7.5 °F 1014.8 in NNE 2.3 mph   52 % 0.0 in
02:21 1.3 °F -7.5 °F 1014.8 in NNE 2.3 mph 2.3 mph 52 % 0.0 in
02:26 1.2 °F -7.6 °F 1014.8 in NNE 3.7 mph 3.7 mph 52 % 0.0 in
02:31 1.2 °F -7.6 °F 1015.8 in NNE 1.9 mph   52 % 0.0 in
02:36 1.1 °F -7.7 °F 1015.8 in Calm     52 % 0.0 in
02:41 1.0 °F -7.8 °F 1015.8 in WNW 1.9 mph 1.9 mph 52 % 0.0 in
02:46 0.9 °F -7.9 °F 1015.8 in Calm     52 % 0.0 in
02:51 0.8 °F -7.9 °F 1015.8 in Calm     52 % 0.0 in
02:56 0.8 °F -7.9 °F 1015.8 in Calm     52 % 0.0 in
03:01 0.7 °F -7.8 °F 1015.8 in Calm     53 % 0.0 in
03:06 0.6 °F -7.9 °F 1015.8 in WSW 3.5 mph 3.5 mph 53 % 0.0 in
03:11 0.5 °F -8.0 °F 1015.8 in WSW 2.3 mph 2.3 mph 53 % 0.0 in
03:16 0.6 °F -7.9 °F 1014.8 in West 3.7 mph 3.7 mph 53 % 0.0 in
03:21 0.6 °F -7.9 °F 1014.8 in South 1.9 mph   53 % 0.0 in
03:26 0.6 °F -7.9 °F 1014.8 in WNW 1.9 mph 1.9 mph 53 % 0.0 in
03:31 0.6 °F -7.9 °F 1015.8 in WNW 2.6 mph 2.6 mph 53 % 0.0 in
03:36 0.6 °F -7.9 °F 1015.8 in West 3.7 mph 3.7 mph 53 % 0.0 in
03:41 0.5 °F -7.7 °F 1015.8 in WNW 2.6 mph 2.6 mph 54 % 0.0 in
03:46 0.4 °F -7.8 °F 1015.8 in West 1.9 mph   54 % 0.0 in
03:51 0.4 °F -7.8 °F 1015.8 in NW 3.7 mph 3.7 mph 54 % 0.0 in
03:56 0.4 °F -7.8 °F 1015.8 in NW 1.9 mph 1.9 mph 54 % 0.0 in
04:01 0.4 °F -7.8 °F 1015.8 in ENE 5.6 mph 5.6 mph 54 % 0.0 in
04:06 0.4 °F -7.6 °F 1015.8 in Calm     55 % 0.0 in
04:11 0.3 °F -7.7 °F 1015.8 in Calm     55 % 0.0 in
04:16 0.2 °F -7.8 °F 1014.8 in Calm     55 % 0.0 in
04:21 0.2 °F -7.8 °F 1014.8 in WNW 1.9 mph 2.3 mph 55 % 0.0 in
04:26 0.2 °F -7.8 °F 1014.8 in WNW 3.2 mph   55 % 0.0 in
04:31 0.2 °F -7.8 °F 1015.8 in WNW 1.9 mph 1.9 mph 55 % 0.0 in
04:36 0.2 °F -7.8 °F 1015.8 in Calm     55 % 0.0 in
04:41 0.2 °F -7.8 °F 1015.8 in West 3.7 mph 3.7 mph 55 % 0.0 in
04:46 0.2 °F -7.8 °F 1015.8 in WSW 3.7 mph 3.7 mph 55 % 0.0 in
04:51 0.0 °F -7.7 °F 1015.8 in WSW 3.2 mph 3.2 mph 56 % 0.0 in
04:56 0.0 °F -7.7 °F 1015.8 in WSW 1.9 mph 1.9 mph 56 % 0.0 in
05:01 -0.1 °F -7.8 °F 1015.8 in Calm     56 % 0.0 in
05:06 -0.2 °F -7.7 °F 1015.8 in Calm     57 % 0.0 in
05:11 -0.2 °F -7.7 °F 1015.8 in Calm     57 % 0.0 in
05:16 -0.1 °F -7.6 °F 1015.8 in Calm     57 % 0.0 in
05:21 -0.2 °F -7.7 °F 1015.8 in WSW 3.2 mph   57 % 0.0 in
05:26 -0.3 °F -7.8 °F 1015.8 in WSW 2.3 mph 2.3 mph 57 % 0.0 in
05:31 -0.2 °F -7.7 °F 1015.8 in WSW 1.9 mph 2.3 mph 57 % 0.0 in
05:36 -0.2 °F -7.5 °F 1015.8 in Calm     58 % 0.0 in
05:41 -0.4 °F -7.7 °F 1015.8 in WSW 1.9 mph 2.3 mph 58 % 0.0 in
05:46 -0.4 °F -7.4 °F 1015.8 in WSW 1.9 mph   59 % 0.0 in
05:51 -0.3 °F -7.3 °F 1015.8 in NNE 3.2 mph 3.2 mph 59 % 0.0 in
05:56 -0.3 °F -7.3 °F 1015.8 in NE 2.6 mph 2.6 mph 59 % 0.0 in
06:01 -0.3 °F -7.3 °F 1015.8 in WNW 2.6 mph   59 % 0.0 in
06:06 -0.3 °F -7.3 °F 1015.8 in ENE 2.3 mph   59 % 0.0 in
06:11 -0.2 °F -7.3 °F 1015.8 in NNE 4.2 mph 4.2 mph 59 % 0.0 in
06:16 -0.2 °F -7.3 °F 1015.8 in WNW 3.7 mph 3.7 mph 59 % 0.0 in
06:21 -0.2 °F -7.3 °F 1015.8 in WNW 3.7 mph 3.7 mph 59 % 0.0 in
06:26 -0.3 °F -7.3 °F 1015.8 in Calm     59 % 0.0 in
06:31 -0.4 °F -7.4 °F 1015.8 in North 2.3 mph   59 % 0.0 in
06:36 -0.4 °F -7.4 °F 1015.8 in North 3.7 mph 3.7 mph 59 % 0.0 in
06:41 -0.4 °F -7.2 °F 1015.8 in NNE 1.9 mph 1.9 mph 60 % 0.0 in
06:46 -0.4 °F -7.2 °F 1015.8 in Calm     60 % 0.0 in
06:51 -0.5 °F -7.3 °F 1015.8 in West 3.7 mph 3.7 mph 60 % 0.0 in
06:56 -0.5 °F -7.3 °F 1015.8 in NE 4.7 mph 4.7 mph 60 % 0.0 in
07:01 -0.5 °F -7.3 °F 1014.8 in NNW 1.9 mph   60 % 0.0 in
07:06 -0.6 °F -7.4 °F 1014.8 in ENE 1.9 mph   60 % 0.0 in
07:11 -0.6 °F -7.4 °F 1014.8 in South 3.7 mph   60 % 0.0 in
07:16 -0.6 °F -7.4 °F 1015.8 in Calm     60 % 0.0 in
07:21 -0.7 °F -7.3 °F 1015.8 in WNW 3.7 mph 3.7 mph 61 % 0.0 in
07:26 -0.8 °F -7.4 °F 1015.8 in NNE 3.7 mph 3.7 mph 61 % 0.0 in
07:31 -0.6 °F -7.2 °F 1014.8 in NE 3.7 mph 3.7 mph 61 % 0.0 in
07:36 -0.6 °F -7.2 °F 1014.8 in WNW 1.9 mph   61 % 0.0 in
07:41 -0.6 °F -7.2 °F 1014.8 in NNW 3.7 mph 3.7 mph 61 % 0.0 in
07:46 -0.7 °F -7.3 °F 1015.8 in Calm     61 % 0.0 in
07:51 -0.8 °F -7.4 °F 1015.8 in WNW 1.9 mph 1.9 mph 61 % 0.0 in
07:56 -0.8 °F -7.4 °F 1015.8 in ENE 1.9 mph   61 % 0.0 in
08:01 -0.8 °F -7.4 °F 1015.8 in Calm     61 % 0.0 in
08:06 -1.0 °F -7.4 °F 1015.8 in West 1.4 mph   62 % 0.0 in
08:11 -0.8 °F -7.2 °F 1015.8 in ENE 3.7 mph 3.7 mph 62 % 0.0 in
08:16 -0.8 °F -7.2 °F 1016.8 in WNW 2.3 mph 2.3 mph 62 % 0.0 in
08:21 -0.8 °F -7.2 °F 1016.8 in WNW 3.2 mph 3.2 mph 62 % 0.0 in
08:26 -0.6 °F -7.0 °F 1016.8 in Calm     62 % 0.0 in
08:31 -0.5 °F -6.9 °F 1015.8 in Calm     62 % 0.0 in
08:36 -0.6 °F -7.0 °F 1015.8 in WSW 3.7 mph 3.7 mph 62 % 0.0 in
08:41 -0.7 °F -7.1 °F 1015.8 in WSW 3.2 mph 3.2 mph 62 % 0.0 in
08:46 -0.7 °F -7.1 °F 1015.8 in WSW 3.7 mph 3.7 mph 62 % 0.0 in
08:51 -0.7 °F -7.1 °F 1015.8 in Calm     62 % 0.0 in
08:56 -0.6 °F -7.0 °F 1015.8 in SSE 1.9 mph   62 % 0.0 in
09:01 -0.3 °F -6.7 °F 1015.8 in NNE 3.7 mph 3.7 mph 62 % 0.0 in
09:06 -0.2 °F -6.6 °F 1015.8 in NE 3.7 mph 3.7 mph 62 % 0.0 in
09:11 -0.2 °F -6.6 °F 1015.8 in NNE 3.9 mph 3.9 mph 62 % 0.0 in
09:16 -0.2 °F -6.6 °F 1016.8 in WNW 1.9 mph 1.9 mph 62 % 0.0 in
09:21 -0.2 °F -6.6 °F 1016.8 in Calm     62 % 0.0 in
09:26 -0.3 °F -6.7 °F 1016.8 in Calm     62 % 0.0 in
09:31 -0.3 °F -6.5 °F 1016.8 in SW 1.9 mph   63 % 0.0 in
09:36 -0.3 °F -6.7 °F 1016.8 in SW 1.9 mph 2.3 mph 62 % 0.0 in
09:42 -0.4 °F -6.8 °F 1016.8 in SW 1.9 mph 1.9 mph 62 % 0.0 in
09:47 -0.3 °F -6.5 °F 1016.8 in Calm     63 % 0.0 in
09:52 -0.3 °F -6.5 °F 1016.8 in Calm     63 % 0.0 in
09:57 -0.3 °F -6.5 °F 1016.8 in Calm     63 % 0.0 in
10:02 -0.3 °F -6.5 °F 1016.8 in Calm     63 % 0.0 in
10:07 -0.3 °F -6.5 °F 1016.8 in Calm     63 % 0.0 in
10:12 -0.3 °F -6.5 °F 1016.8 in Calm     63 % 0.0 in
10:17 -0.3 °F -6.5 °F 1016.8 in Calm     63 % 0.0 in
10:22 -0.3 °F -6.5 °F 1016.8 in Calm     63 % 0.0 in
10:27 -0.3 °F -6.5 °F 1016.8 in Calm     63 % 0.0 in
10:32 -0.3 °F -6.5 °F 1016.8 in Calm     63 % 0.0 in
10:37 -0.3 °F -6.5 °F 1016.8 in Calm     63 % 0.0 in
10:42 -0.3 °F -6.5 °F 1016.8 in Calm     63 % 0.0 in
10:47 -0.3 °F -6.5 °F 1016.8 in Calm     63 % 0.0 in
10:52 -0.3 °F -6.5 °F 1016.8 in Calm     63 % 0.0 in
10:57 -0.3 °F -6.5 °F 1016.8 in Calm     63 % 0.0 in
11:02 -0.3 °F -6.5 °F 1016.8 in Calm     63 % 0.0 in
11:07 -0.3 °F -6.5 °F 1016.8 in Calm     63 % 0.0 in
11:12 -0.3 °F -6.5 °F 1016.8 in Calm     63 % 0.0 in
11:17 -0.3 °F -6.5 °F 1016.8 in Calm     63 % 0.0 in
11:22 -0.3 °F -6.5 °F 1016.8 in Calm     63 % 0.0 in
11:27 -0.3 °F -6.5 °F 1016.8 in Calm     63 % 0.0 in
11:32 -0.3 °F -6.5 °F 1016.8 in Calm     63 % 0.0 in
11:37 -0.3 °F -6.5 °F 1016.8 in Calm     63 % 0.0 in
11:42 4.4 °F -3.9 °F 1017.8 in NE 7.4 mph 7.4 mph 55 % 0.0 in
11:47 4.6 °F -3.7 °F 1017.8 in WNW 7.4 mph 7.4 mph 55 % 0.0 in
11:52 4.9 °F -3.4 °F 1017.8 in WNW 3.7 mph 3.7 mph 55 % 0.0 in
11:57 5.6 °F -2.7 °F 1017.8 in SSW 3.7 mph 3.7 mph 55 % 0.0 in
12:02 5.6 °F -3.0 °F 1017.8 in WSW 9.3 mph 9.3 mph 54 % 0.0 in
12:07 5.8 °F -2.8 °F 1017.8 in ENE 4.7 mph 4.7 mph 54 % 0.0 in
12:12 5.5 °F -3.3 °F 1017.8 in ESE 3.9 mph 3.9 mph 53 % 0.0 in
12:17 5.6 °F -3.5 °F 1017.8 in ESE 5.6 mph 5.6 mph 52 % 0.0 in
12:22 5.8 °F -3.3 °F 1017.8 in South 7.4 mph 7.4 mph 52 % 0.0 in
12:27 5.8 °F -3.3 °F 1016.8 in ENE 7.4 mph 7.4 mph 52 % 0.0 in
12:32 5.9 °F -3.2 °F 1016.8 in NNE 5.8 mph 5.8 mph 52 % 0.0 in
12:37 5.9 °F -3.2 °F 1016.8 in ENE 5.6 mph 5.6 mph 52 % 0.0 in
12:42 6.2 °F -2.9 °F 1016.8 in ENE 5.6 mph 5.6 mph 52 % 0.0 in
12:47 6.2 °F -2.9 °F 1016.8 in ENE 7.4 mph 7.4 mph 52 % 0.0 in
12:52 6.0 °F -3.1 °F 1016.8 in ESE 3.7 mph 3.7 mph 52 % 0.0 in
12:57 6.5 °F -2.7 °F 1015.8 in ENE 5.0 mph 5.0 mph 52 % 0.0 in
13:02 6.3 °F -3.1 °F 1015.8 in SE 8.7 mph 8.7 mph 51 % 0.0 in
13:07 6.8 °F -2.7 °F 1015.8 in South 7.4 mph 7.4 mph 51 % 0.0 in
13:12 6.5 °F -2.9 °F 1015.8 in East 5.0 mph 5.0 mph 51 % 0.0 in
13:17 6.3 °F -3.1 °F 1015.8 in ENE 3.7 mph 3.7 mph 51 % 0.0 in
13:22 6.2 °F -3.2 °F 1015.8 in ENE 3.9 mph 3.9 mph 51 % 0.0 in
13:27 6.3 °F -3.1 °F 1015.8 in East 9.3 mph 9.3 mph 51 % 0.0 in
13:32 6.5 °F -2.9 °F 1015.8 in SSE 7.4 mph 7.4 mph 51 % 0.0 in
13:37 6.8 °F -2.7 °F 1015.8 in East 7.4 mph 7.4 mph 51 % 0.0 in
13:42 6.5 °F -2.9 °F 1015.8 in ESE 8.7 mph 8.7 mph 51 % 0.0 in
13:47 6.3 °F -3.4 °F 1015.8 in ESE 9.7 mph 9.7 mph 50 % 0.0 in
13:52 6.3 °F -3.4 °F 1015.8 in NNE 8.7 mph 8.7 mph 50 % 0.0 in
13:57 6.4 °F -3.0 °F 1016.8 in NE 9.3 mph 9.3 mph 51 % 0.0 in
14:02 6.4 °F -3.6 °F 1016.8 in ESE 9.3 mph 9.3 mph 49 % 0.0 in
14:07 6.7 °F -3.3 °F 1016.8 in WSW 3.7 mph 3.7 mph 49 % 0.0 in
14:12 7.0 °F -3.0 °F 1015.8 in ESE 7.4 mph 7.4 mph 49 % 0.0 in
14:17 7.0 °F -3.0 °F 1015.8 in East 9.3 mph 9.3 mph 49 % 0.0 in
14:22 6.9 °F -3.1 °F 1015.8 in ESE 9.3 mph 9.3 mph 49 % 0.0 in
14:27 7.1 °F -2.9 °F 1015.8 in ESE 5.8 mph 5.8 mph 49 % 0.0 in
14:32 7.2 °F -2.8 °F 1015.8 in East 9.7 mph 9.7 mph 49 % 0.0 in
14:37 6.9 °F -3.1 °F 1015.8 in ESE 11.4 mph 11.4 mph 49 % 0.0 in
14:42 6.6 °F -2.8 °F 1015.8 in ENE 14.8 mph 14.8 mph 51 % 0.0 in
14:47 6.0 °F -2.9 °F 1015.8 in ESE 13.0 mph 13.0 mph 53 % 0.0 in
14:52 5.6 °F -2.7 °F 1015.8 in ENE 16.7 mph 16.7 mph 55 % 0.0 in
14:57 5.7 °F -2.2 °F 1015.8 in ESE 15.1 mph 15.1 mph 57 % 0.0 in
15:02 5.5 °F -2.1 °F 1015.8 in ESE 13.0 mph 13.0 mph 58 % 0.0 in
15:07 5.4 °F -2.0 °F 1015.8 in East 17.5 mph 17.5 mph 59 % 0.0 in
15:12 5.3 °F -1.8 °F 1015.8 in ESE 13.0 mph 13.0 mph 60 % 0.0 in
15:17 5.3 °F -1.8 °F 1015.8 in ESE 14.8 mph 14.8 mph 60 % 0.0 in
15:22 5.2 °F -1.7 °F 1015.8 in ESE 18.5 mph 18.5 mph 61 % 0.0 in
15:27 5.0 °F -1.9 °F 1015.8 in ENE 11.9 mph 11.9 mph 61 % 0.0 in
15:32 4.9 °F -2.0 °F 1015.8 in ESE 9.3 mph 9.3 mph 61 % 0.0 in
15:37 4.8 °F -2.1 °F 1015.8 in ENE 18.5 mph 18.5 mph 61 % 0.0 in
15:42 4.7 °F -2.2 °F 1015.8 in East 11.1 mph 11.1 mph 61 % 0.0 in
15:47 4.9 °F -2.0 °F 1015.8 in ENE 11.1 mph 11.1 mph 61 % 0.0 in
15:52 4.8 °F -2.1 °F 1015.8 in NNE 11.1 mph 11.1 mph 61 % 0.0 in
15:57 4.8 °F -2.1 °F 1015.8 in East 7.9 mph 7.9 mph 61 % 0.0 in
16:02 4.8 °F -2.1 °F 1015.8 in East 7.4 mph 7.4 mph 61 % 0.0 in
16:07 4.8 °F -2.1 °F 1015.8 in SE 5.6 mph 5.6 mph 61 % 0.0 in
16:12 4.7 °F -2.4 °F 1015.8 in NE 10.3 mph 10.3 mph 60 % 0.0 in
16:17 4.8 °F -2.1 °F 1015.8 in ENE 9.0 mph 9.0 mph 61 % 0.0 in
16:22 4.7 °F -2.2 °F 1015.8 in ENE 9.3 mph 9.3 mph 61 % 0.0 in
16:27 4.7 °F -2.2 °F 1015.8 in ESE 13.0 mph 13.0 mph 61 % 0.0 in
16:32 4.6 °F -2.3 °F 1015.8 in ENE 11.9 mph 11.9 mph 61 % 0.0 in
16:37 4.5 °F -2.4 °F 1015.8 in ENE 9.7 mph 9.7 mph 61 % 0.0 in
16:42 4.5 °F -2.4 °F 1016.8 in East 11.1 mph 11.1 mph 61 % 0.0 in
16:47 4.4 °F -2.5 °F 1016.8 in NE 7.4 mph 7.4 mph 61 % 0.0 in
16:52 4.4 °F -2.5 °F 1016.8 in ENE 7.4 mph 7.4 mph 61 % 0.0 in
16:57 4.3 °F -2.3 °F 1016.8 in NNE 7.6 mph 7.6 mph 62 % 0.0 in
17:02 4.3 °F -2.3 °F 1016.8 in ENE 9.3 mph 9.3 mph 62 % 0.0 in
17:07 4.2 °F -2.4 °F 1016.8 in NE 7.4 mph 7.4 mph 62 % 0.0 in
17:12 4.2 °F -2.4 °F 1016.8 in NNE 7.4 mph 7.4 mph 62 % 0.0 in
17:17 4.2 °F -2.4 °F 1016.8 in NW 7.4 mph 7.4 mph 62 % 0.0 in
17:22 4.1 °F -2.6 °F 1016.8 in NE 5.6 mph 5.6 mph 62 % 0.0 in
17:27 4.1 °F -2.6 °F 1016.8 in NNE 9.3 mph 9.3 mph 62 % 0.0 in
17:32 4.1 °F -2.6 °F 1016.8 in NNE 5.6 mph 5.6 mph 62 % 0.0 in
17:37 4.1 °F -2.6 °F 1016.8 in NNE 7.4 mph 7.4 mph 62 % 0.0 in
17:42 4.0 °F -2.6 °F 1016.8 in NE 5.6 mph 5.6 mph 62 % 0.0 in
17:47 4.0 °F -2.6 °F 1016.8 in NNE 5.6 mph 5.6 mph 62 % 0.0 in
17:52 3.9 °F -2.7 °F 1016.8 in NNE 5.8 mph 5.8 mph 62 % 0.0 in
17:57 3.9 °F -2.7 °F 1017.8 in ENE 6.1 mph 6.1 mph 62 % 0.0 in
18:02 3.9 °F -2.7 °F 1017.8 in NE 3.7 mph 3.7 mph 62 % 0.0 in
18:07 3.9 °F -2.7 °F 1017.8 in NNE 3.7 mph 3.7 mph 62 % 0.0 in
18:12 3.8 °F -2.8 °F 1016.8 in East 3.7 mph 3.7 mph 62 % 0.0 in
18:17 3.8 °F -2.8 °F 1016.8 in NE 2.6 mph 2.6 mph 62 % 0.0 in
18:22 3.8 °F -2.8 °F 1016.8 in ENE 3.7 mph 3.7 mph 62 % 0.0 in
18:27 3.8 °F -2.8 °F 1017.8 in ENE 3.7 mph 3.7 mph 62 % 0.0 in
18:32 3.8 °F -2.8 °F 1017.8 in ENE 2.6 mph 2.6 mph 62 % 0.0 in
18:37 3.8 °F -2.8 °F 1017.8 in NE 3.7 mph 3.7 mph 62 % 0.0 in
18:42 3.7 °F -2.9 °F 1017.8 in Calm     62 % 0.0 in
18:47 3.7 °F -2.9 °F 1017.8 in ENE 1.9 mph 1.9 mph 62 % 0.0 in
18:52 3.7 °F -2.9 °F 1017.8 in ENE 1.9 mph 2.3 mph 62 % 0.0 in
18:57 3.7 °F -2.9 °F 1017.8 in Calm     62 % 0.0 in
19:02 3.7 °F -2.9 °F 1017.8 in Calm     62 % 0.0 in
19:07 3.7 °F -2.7 °F 1017.8 in Calm     63 % 0.0 in
19:12 3.6 °F -2.8 °F 1017.8 in Calm     63 % 0.0 in
19:17 3.7 °F -2.9 °F 1017.8 in NE 3.7 mph 3.7 mph 62 % 0.0 in
19:22 3.7 °F -2.9 °F 1017.8 in ENE 7.4 mph 7.4 mph 62 % 0.0 in
19:27 3.7 °F -2.7 °F 1017.8 in ENE 3.9 mph 3.9 mph 63 % 0.0 in
19:32 3.7 °F -2.9 °F 1017.8 in NNE 3.7 mph 3.7 mph 62 % 0.0 in
19:37 3.7 °F -2.9 °F 1017.8 in ENE 5.6 mph 5.6 mph 62 % 0.0 in
19:42 3.7 °F -2.9 °F 1017.8 in NE 3.7 mph 3.7 mph 62 % 0.0 in
19:47 3.7 °F -2.9 °F 1017.8 in SSE 3.7 mph 3.7 mph 62 % 0.0 in
19:52 3.7 °F -2.9 °F 1017.8 in Calm     62 % 0.0 in
19:57 3.6 °F -3.0 °F 1017.8 in SSE 1.9 mph 1.9 mph 62 % 0.0 in
20:02 3.6 °F -2.8 °F 1017.8 in Calm     63 % 0.0 in
20:07 3.5 °F -2.9 °F 1017.8 in East 1.9 mph 2.3 mph 63 % 0.0 in
20:12 3.5 °F -2.9 °F 1017.8 in NNE 5.6 mph 5.6 mph 63 % 0.0 in
20:17 3.5 °F -3.1 °F 1017.8 in NNE 3.9 mph 3.9 mph 62 % 0.0 in
20:22 3.5 °F -3.1 °F 1017.8 in NNE 3.7 mph 3.7 mph 62 % 0.0 in
20:27 3.4 °F -3.2 °F 1017.8 in NNE 1.9 mph   62 % 0.0 in
20:32 3.3 °F -3.3 °F 1017.8 in NNE 3.9 mph 3.9 mph 62 % 0.0 in
20:37 3.2 °F -3.4 °F 1017.8 in NNE 3.7 mph 3.7 mph 62 % 0.0 in
20:42 3.0 °F -3.6 °F 1017.8 in NNE 1.9 mph   62 % 0.0 in
20:47 2.9 °F -3.7 °F 1017.8 in NE 1.9 mph 1.9 mph 62 % 0.0 in
20:52 2.8 °F -3.8 °F 1017.8 in Calm     62 % 0.0 in
20:57 2.7 °F -3.9 °F 1017.8 in NNE 1.9 mph   62 % 0.0 in
21:02 2.6 °F -3.9 °F 1017.8 in NNE 1.9 mph 1.9 mph 62 % 0.0 in
21:07 2.4 °F -3.9 °F 1017.8 in Calm     63 % 0.0 in
21:12 2.4 °F -3.9 °F 1017.8 in Calm     63 % 0.0 in
21:17 2.2 °F -4.1 °F 1017.8 in Calm     63 % 0.0 in
21:22 2.1 °F -4.0 °F 1017.8 in Calm     64 % 0.0 in
21:27 2.0 °F -4.1 °F 1017.8 in Calm     64 % 0.0 in
21:32 2.0 °F -4.1 °F 1017.8 in Calm     64 % 0.0 in
21:37 1.9 °F -4.2 °F 1017.8 in WNW 1.9 mph   64 % 0.0 in
21:43 1.8 °F -4.3 °F 1017.8 in Calm     64 % 0.0 in
21:48 1.8 °F -4.3 °F 1017.8 in NW 1.9 mph 1.9 mph 64 % 0.0 in
21:53 1.7 °F -4.4 °F 1017.8 in Calm     64 % 0.0 in
21:58 1.6 °F -4.3 °F 1017.8 in Calm     65 % 0.0 in
22:03 1.5 °F -4.4 °F 1017.8 in Calm     65 % 0.0 in
22:07 1.5 °F -4.4 °F 1017.8 in Calm     65 % 0.0 in
22:13 1.4 °F -4.4 °F 1017.8 in Calm     65 % 0.0 in
22:18 1.3 °F -4.6 °F 1017.8 in Calm     65 % 0.0 in
22:23 1.2 °F -4.7 °F 1017.8 in Calm     65 % 0.0 in
22:28 1.1 °F -4.8 °F 1016.8 in Calm     65 % 0.0 in
22:33 1.0 °F -4.8 °F 1016.8 in Calm     65 % 0.0 in
22:38 1.0 °F -4.7 °F 1016.8 in Calm     66 % 0.0 in
22:43 1.0 °F -4.7 °F 1016.8 in Calm     66 % 0.0 in
22:48 1.1 °F -4.6 °F 1016.8 in NW 1.9 mph   66 % 0.0 in
22:53 1.1 °F -4.3 °F 1016.8 in Calm     67 % 0.0 in
22:58 1.1 °F -4.6 °F 1016.8 in Calm     66 % 0.0 in
23:03 0.9 °F -4.7 °F 1016.8 in Calm     66 % 0.0 in
23:08 0.8 °F -4.8 °F 1016.8 in Calm     66 % 0.0 in
23:13 0.8 °F -4.6 °F 1017.8 in Calm     67 % 0.0 in
23:18 0.7 °F -4.7 °F 1017.8 in WNW 1.9 mph   67 % 0.0 in
23:23 0.7 °F -4.7 °F 1017.8 in Calm     67 % 0.0 in
23:28 0.6 °F -4.8 °F 1017.8 in WNW 1.9 mph   67 % 0.0 in
23:33 0.4 °F -5.0 °F 1017.8 in WSW 3.7 mph 3.7 mph 67 % 0.0 in
23:38 0.3 °F -5.1 °F 1017.8 in Calm     67 % 0.0 in
23:43 0.3 °F -4.9 °F 1017.8 in WSW 2.3 mph   68 % 0.0 in
23:48 0.2 °F -5.0 °F 1017.8 in WSW 3.7 mph 3.7 mph 68 % 0.0 in
23:53 0.1 °F -5.1 °F 1017.8 in WSW 3.7 mph   68 % 0.0 in
23:58 0.0 °F -5.2 °F 1017.8 in Calm     68 % 0.0 in
Meteo Sesrovires
Elogis d' Weather Underground - 4 mb

Guio original per  Jim McMurry - jmcmurry@mwt.net Adaptat per a la plantilla per  Wim van der Kuil - Leuven-Template.eu

Trobareu la nostra informacio del temps tambe a:

Weather Underground

AWEKAS